Troy, Ohio
Current Conditions -  °F | °C
As of 5:56 PM on Sunday 21 Dec 2014 (Local Time) from KDAY Reporting Station
Broken Clouds Broken Clouds  
Wind Chill: -4°   Ceiling: 24000
Heat Index:   Visibility: 7mi
Dew Point: -4°   Wind: 7mph
Humidity: 75%   Direction: 110°ESE
Pressure: 30.18"   Gusts: NA
Location:  40.04°N, 84.2°W
Report Text: KDAY 212256Z 11006KT 7SM BKN240 00/M04 A3018 RMK AO2 SLP231 T00001039
Loading
Personal Weather Stations






























Interactive Weather Map New forecast layout! Learn more

10-Day Weather Forecast

Advertisements
Track Severe Weather on mobile